Time;durP1;ratioP1;P1;durP2;ratioP2;P2;SDS_P1;SDS_P2;PMS_P1;PMS_P2;Temp;Humidity;BMP_temperature;BMP_pressure;BME280_temperature;BME280_humidity;BME280_pressure;Samples;Min_cycle;Max_cycle;Signal;HPM_P1;HPM_P2
2022/10/25 00:02:20;;;;;;;8.68;1.98;;;;;;;17.29;62.77;101094.84;5001209;28;114976;-69
2022/10/25 00:04:47;;;;;;;11.45;2.40;;;;;;;17.34;62.81;101097.22;5003840;28;113064;-68
2022/10/25 00:07:14;;;;;;;8.98;2.20;;;;;;;17.36;62.65;101096.16;4985325;28;122906;-68
2022/10/25 00:09:41;;;;;;;10.60;2.40;;;;;;;17.39;62.62;101100.44;4990020;28;123883;-68
2022/10/25 00:12:08;;;;;;;8.05;2.42;;;;;;;17.42;62.59;101093.06;5004408;28;114561;-68
2022/10/25 00:14:35;;;;;;;10.13;2.63;;;;;;;17.45;62.40;101091.97;5004354;28;113553;-67
2022/10/25 00:17:02;;;;;;;7.95;1.95;;;;;;;17.44;62.76;101092.94;5004676;28;123807;-69
2022/10/25 00:19:29;;;;;;;9.35;2.42;;;;;;;17.46;62.38;101099.03;4984872;28;124053;-68
2022/10/25 00:21:56;;;;;;;9.77;2.33;;;;;;;17.47;62.46;101103.44;5006785;28;118426;-69
2022/10/25 00:24:24;;;;;;;7.93;2.28;;;;;;;17.48;62.47;101099.81;5003394;28;115214;-70
2022/10/25 00:26:51;;;;;;;8.10;1.95;;;;;;;17.49;62.56;101101.50;5000594;28;124349;-68
2022/10/25 00:29:18;;;;;;;9.63;2.00;;;;;;;17.49;62.24;101101.50;5004334;28;123845;-67
2022/10/25 00:31:45;;;;;;;11.00;2.10;;;;;;;17.50;62.27;101108.59;4986112;28;113242;-70
2022/10/25 00:34:12;;;;;;;11.60;2.20;;;;;;;17.52;62.54;101112.03;5004717;28;114448;-69
2022/10/25 00:36:39;;;;;;;7.95;2.08;;;;;;;17.53;62.61;101113.72;4979909;28;124338;-67
2022/10/25 00:39:06;;;;;;;12.55;2.20;;;;;;;17.56;62.40;101113.50;5010023;28;123748;-68
2022/10/25 00:41:33;;;;;;;9.95;2.53;;;;;;;17.57;62.47;101115.22;5006650;28;114197;-68
2022/10/25 00:44:34;;;;;;;6.03;2.38;;;;;;;17.58;62.60;101116.94;4997710;28;114110;-68
2022/10/25 00:47:09;;;;;;;9.55;2.10;;;;;;;17.59;62.53;101105.25;4978412;28;123127;-67
2022/10/25 00:49:37;;;;;;;9.88;1.88;;;;;;;17.62;62.55;101115.75;5000475;28;124433;-67
2022/10/25 00:52:07;;;;;;;6.80;1.90;;;;;;;17.64;62.41;101127.22;5004691;28;114250;-67
2022/10/25 00:54:38;;;;;;;8.27;2.00;;;;;;;17.65;62.32;101123.59;5000486;28;113825;-67
2022/10/25 00:57:12;;;;;;;10.23;2.10;;;;;;;17.66;62.33;101119.91;4986229;28;124325;-67
2022/10/25 00:59:40;;;;;;;8.98;2.03;;;;;;;17.66;62.05;101130.63;5000380;28;122874;-68
2022/10/25 01:02:07;;;;;;;10.05;2.40;;;;;;;17.66;62.03;101124.44;4985497;28;113245;-67
2022/10/25 01:04:34;;;;;;;7.10;2.00;;;;;;;17.65;62.04;101131.63;5001366;28;114861;-67
2022/10/25 01:07:01;;;;;;;9.73;1.98;;;;;;;17.66;62.26;101135.16;4998991;28;124691;-68
2022/10/25 01:09:30;;;;;;;8.52;2.25;;;;;;;17.65;62.16;101128.94;4999086;28;122694;-67
2022/10/25 01:11:57;;;;;;;12.57;2.08;;;;;;;17.65;62.32;101128.94;5005112;28;114123;-67
2022/10/25 01:14:26;;;;;;;7.75;1.83;;;;;;;17.68;62.15;101134.06;5000413;28;115049;-67
2022/10/25 01:17:21;;;;;;;9.05;2.00;;;;;;;17.68;62.23;101133.22;5000061;28;123921;-67
2022/10/25 01:20:18;;;;;;;11.20;2.20;;;;;;;17.67;62.21;101132.34;5002010;28;123554;-67
2022/10/25 01:22:58;;;;;;;8.27;2.00;;;;;;;17.66;62.25;101136.00;4997535;28;113609;-67
2022/10/25 01:25:57;;;;;;;10.38;2.10;;;;;;;17.66;62.21;101124.44;4996269;28;114164;-67
2022/10/25 01:29:06;;;;;;;8.88;1.98;;;;;;;17.66;62.29;101141.34;4980545;28;123664;-67
2022/10/25 01:31:46;;;;;;;9.50;2.20;;;;;;;17.66;62.22;101136.00;4963373;28;123460;-69
2022/10/25 01:34:49;;;;;;;9.38;1.75;;;;;;;17.65;62.10;101139.66;4977943;28;97326;-69
2022/10/25 01:37:29;;;;;;;11.68;2.15;;;;;;;17.67;62.37;101143.06;4977883;28;113758;-68
2022/10/25 01:40:05;;;;;;;10.52;2.05;;;;;;;17.69;62.27;101149.19;4965782;28;124859;-68
2022/10/25 01:43:00;;;;;;;7.75;1.95;;;;;;;17.71;62.26;101149.94;4983821;28;124070;-69
2022/10/25 01:45:34;;;;;;;9.83;2.00;;;;;;;17.74;62.18;101142.63;4980048;28;114002;-68
2022/10/25 01:48:12;;;;;;;8.98;2.22;;;;;;;17.76;62.17;101146.06;4982593;28;113809;-68
2022/10/25 01:50:44;;;;;;;11.48;2.50;;;;;;;17.78;62.20;101133.41;4979340;28;123976;-69
2022/10/25 01:53:11;;;;;;;9.88;1.98;;;;;;;17.83;62.22;101142.00;4987046;28;124512;-68
2022/10/25 01:55:44;;;;;;;7.28;2.00;;;;;;;17.85;62.16;101145.44;4974352;28;115391;-68
2022/10/25 01:58:53;;;;;;;9.80;2.00;;;;;;;17.85;62.10;101140.09;4979997;28;114679;-69
2022/10/25 02:01:40;;;;;;;8.70;2.05;;;;;;;17.88;62.15;101145.25;4980999;28;124018;-69
2022/10/25 02:04:19;;;;;;;10.02;2.45;;;;;;;17.90;62.12;101146.00;4981317;28;124503;-68
2022/10/25 02:06:58;;;;;;;9.40;2.05;;;;;;;17.91;61.97;101145.00;4977407;28;115672;-68
2022/10/25 02:09:53;;;;;;;9.77;1.98;;;;;;;17.92;62.10;101146.72;4964254;28;113960;-69
2022/10/25 02:12:26;;;;;;;10.68;1.80;;;;;;;17.93;61.88;101148.44;4982266;28;124453;-68
2022/10/25 02:15:06;;;;;;;12.13;2.00;;;;;;;17.95;61.98;101149.19;4963270;28;124741;-69
2022/10/25 02:17:40;;;;;;;13.15;1.95;;;;;;;17.97;62.01;101149.94;4981112;28;114557;-69
2022/10/25 02:20:10;;;;;;;8.50;1.98;;;;;;;17.99;62.01;101148.00;4962105;28;114243;-69
2022/10/25 02:22:38;;;;;;;6.10;1.80;;;;;;;18.00;61.88;101152.38;4962789;28;122885;-69
2022/10/25 02:25:07;;;;;;;7.00;1.90;;;;;;;18.00;61.89;101149.72;4977962;28;123939;-69
2022/10/25 02:27:37;;;;;;;10.68;1.95;;;;;;;18.00;61.84;101157.75;4983066;28;113883;-68
2022/10/25 02:30:06;;;;;;;9.43;2.10;;;;;;;18.01;61.86;101156.81;4983070;28;114144;-69
2022/10/25 02:32:33;;;;;;;10.25;2.05;;;;;;;18.02;61.60;101158.50;4977990;28;124276;-69
2022/10/25 02:35:00;;;;;;;8.77;1.70;;;;;;;18.02;61.89;101166.53;4981958;28;123843;-68
2022/10/25 02:37:27;;;;;;;7.97;1.92;;;;;;;18.01;61.98;101167.53;4979485;28;114270;-69
2022/10/25 02:39:55;;;;;;;9.48;2.17;;;;;;;18.02;61.79;101169.22;4969995;28;113072;-69
2022/10/25 02:42:22;;;;;;;8.00;1.80;;;;;;;18.02;61.59;101171.91;4963793;28;124292;-69
2022/10/25 02:44:49;;;;;;;9.73;2.00;;;;;;;18.03;61.72;101170.94;4980202;28;124599;-68
2022/10/25 02:47:16;;;;;;;5.95;1.70;;;;;;;18.02;61.78;101169.22;4980203;28;115150;-69
2022/10/25 02:49:43;;;;;;;6.10;1.98;;;;;;;18.02;61.80;101174.56;4982607;28;115293;-68
2022/10/25 02:52:10;;;;;;;5.82;2.05;;;;;;;18.02;61.67;101166.53;4959352;28;123016;-69
2022/10/25 02:54:37;;;;;;;8.23;2.05;;;;;;;18.02;61.80;101163.84;4968384;28;122672;-69
2022/10/25 02:57:04;;;;;;;8.43;2.33;;;;;;;18.02;61.90;101182.63;4974684;28;115470;-68
2022/10/25 02:59:31;;;;;;;8.82;2.22;;;;;;;18.01;61.61;101170.19;4977811;28;114750;-68
2022/10/25 03:01:58;;;;;;;10.02;1.92;;;;;;;18.00;61.73;101176.50;4985331;28;123868;-69
2022/10/25 03:04:25;;;;;;;6.75;1.60;;;;;;;18.00;61.48;101176.50;4970223;28;124156;-69
2022/10/25 03:06:52;;;;;;;5.80;1.65;;;;;;;17.99;61.90;101185.53;4982977;28;114379;-69
2022/10/25 03:09:19;;;;;;;8.02;1.88;;;;;;;17.98;61.78;101183.81;4985593;28;113745;-69
2022/10/25 03:11:46;;;;;;;8.82;2.17;;;;;;;17.97;61.65;101184.78;4977961;28;124266;-69
2022/10/25 03:14:13;;;;;;;9.45;2.20;;;;;;;17.95;61.73;101194.75;4984987;28;123468;-69
2022/10/25 03:16:40;;;;;;;9.57;2.10;;;;;;;17.94;61.55;101187.69;4976377;28;114620;-67
2022/10/25 03:19:07;;;;;;;7.30;1.92;;;;;;;17.92;61.68;101189.59;4972550;28;112678;-68
2022/10/25 03:21:34;;;;;;;7.75;1.95;;;;;;;17.92;61.63;101194.97;4969598;28;124031;-67
2022/10/25 03:24:07;;;;;;;8.25;2.00;;;;;;;17.92;61.80;101197.66;4978084;28;124302;-68
2022/10/25 03:26:34;;;;;;;13.65;2.05;;;;;;;17.90;61.45;101196.91;4979537;28;114172;-68
2022/10/25 03:29:01;;;;;;;10.20;2.00;;;;;;;17.89;61.44;101200.53;4984970;28;113964;-68
2022/10/25 03:31:28;;;;;;;10.38;2.08;;;;;;;17.87;61.54;101205.16;4983961;28;124244;-68
2022/10/25 03:33:55;;;;;;;6.90;1.98;;;;;;;17.82;61.44;101210.81;4986218;28;124059;-68
2022/10/25 03:36:22;;;;;;;8.38;2.15;;;;;;;17.79;61.40;101211.00;4987550;28;114181;-68
2022/10/25 03:38:49;;;;;;;6.95;2.15;;;;;;;17.76;61.60;101213.03;4980367;28;113938;-68
2022/10/25 03:41:16;;;;;;;10.48;2.08;;;;;;;17.73;61.28;101224.00;4986962;28;123938;-68
2022/10/25 03:43:43;;;;;;;6.30;2.22;;;;;;;17.71;61.33;101219.59;4986156;28;124079;-68
2022/10/25 03:46:10;;;;;;;16.67;2.20;;;;;;;17.67;61.36;101228.78;4980945;28;115854;-68
2022/10/25 03:48:37;;;;;;;8.10;2.00;;;;;;;17.65;61.43;101229.84;4977401;28;114056;-68
2022/10/25 03:51:04;;;;;;;7.93;2.00;;;;;;;17.61;61.71;101223.88;4988312;28;123334;-68
2022/10/25 03:53:32;;;;;;;8.43;1.95;;;;;;;17.58;61.54;101229.44;4980675;28;123893;-68
2022/10/25 03:55:59;;;;;;;8.18;2.15;;;;;;;17.55;61.52;101234.97;4971702;28;113289;-68
2022/10/25 03:58:26;;;;;;;12.55;2.25;;;;;;;17.50;61.43;101231.78;4969444;28;114013;-68
2022/10/25 04:00:53;;;;;;;8.52;1.83;;;;;;;17.47;61.73;101231.97;4975774;28;124775;-68
2022/10/25 04:03:20;;;;;;;11.35;2.53;;;;;;;17.42;61.71;101234.97;4985167;28;125229;-68
2022/10/25 04:05:47;;;;;;;10.90;2.25;;;;;;;17.37;61.73;101246.97;4985951;28;114841;-68
2022/10/25 04:08:14;;;;;;;7.60;2.60;;;;;;;17.34;61.55;101249.84;4988055;28;113849;-68
2022/10/25 04:10:41;;;;;;;9.13;2.63;;;;;;;17.30;61.83;101242.00;4986688;28;124195;-68
2022/10/25 04:13:08;;;;;;;8.60;2.47;;;;;;;17.28;61.71;101249.28;4985137;28;124326;-68
2022/10/25 04:15:37;;;;;;;8.00;2.17;;;;;;;17.25;61.78;101248.63;4969493;28;114207;-68
2022/10/25 04:18:04;;;;;;;7.13;2.22;;;;;;;17.22;61.94;101251.53;4972485;28;114012;-68
2022/10/25 04:20:31;;;;;;;10.88;2.40;;;;;;;17.18;62.06;101253.53;4990857;28;124833;-68
2022/10/25 04:22:58;;;;;;;10.95;2.40;;;;;;;17.14;61.99;101252.03;4980117;28;123713;-68
2022/10/25 04:25:26;;;;;;;7.50;2.10;;;;;;;17.11;61.92;101246.88;4979873;28;114607;-68
2022/10/25 04:27:54;;;;;;;9.30;2.40;;;;;;;17.09;61.90;101254.16;4981794;28;114147;-68
2022/10/25 04:30:21;;;;;;;10.48;2.55;;;;;;;17.07;61.98;101250.72;4969572;28;122079;-68
2022/10/25 04:32:48;;;;;;;12.13;2.47;;;;;;;17.03;61.95;101258.09;4987711;28;123842;-68
2022/10/25 04:35:16;;;;;;;6.63;2.42;;;;;;;16.99;62.10;101250.34;4987154;28;115247;-68
2022/10/25 04:37:43;;;;;;;7.55;2.67;;;;;;;16.97;62.24;101260.28;4985673;28;115639;-68
2022/10/25 04:40:10;;;;;;;8.82;2.13;;;;;;;16.94;62.25;101256.00;4985685;28;123908;-68
2022/10/25 04:42:37;;;;;;;8.55;2.38;;;;;;;16.91;62.31;101262.44;4985907;28;124151;-68
2022/10/25 04:45:05;;;;;;;10.65;2.60;;;;;;;16.89;62.45;101264.31;4990334;28;113960;-68
2022/10/25 04:47:32;;;;;;;10.20;2.67;;;;;;;16.88;62.47;101257.25;4988256;28;114280;-68
2022/10/25 04:50:00;;;;;;;7.05;2.35;;;;;;;16.86;62.56;101264.53;4989980;28;124349;-68
2022/10/25 04:52:28;;;;;;;4.78;2.10;;;;;;;16.86;62.45;101263.69;4980535;28;123178;-68
2022/10/25 04:54:55;;;;;;;9.60;2.65;;;;;;;16.85;62.62;101261.94;4989623;28;114602;-68
2022/10/25 04:57:24;;;;;;;7.47;2.45;;;;;;;16.83;62.47;101263.88;4985205;28;113558;-68
2022/10/25 04:59:52;;;;;;;6.45;2.13;;;;;;;16.82;62.54;101273.72;4968555;28;122314;-68
2022/10/25 05:02:19;;;;;;;8.88;2.50;;;;;;;16.80;62.48;101280.97;4983208;28;123720;-68
2022/10/25 05:04:46;;;;;;;7.88;2.60;;;;;;;16.77;62.61;101270.44;4983278;28;114367;-67
2022/10/25 05:07:16;;;;;;;11.57;2.88;;;;;;;16.76;62.71;101268.72;4987603;28;113992;-68
2022/10/25 05:09:43;;;;;;;13.40;2.67;;;;;;;16.75;62.65;101269.69;4988229;28;123689;-68
2022/10/25 05:12:14;;;;;;;10.27;2.95;;;;;;;16.75;62.66;101277.72;4987375;28;123602;-68
2022/10/25 05:14:41;;;;;;;10.40;2.90;;;;;;;16.73;62.52;101279.63;4983423;28;113097;-68
2022/10/25 05:17:08;;;;;;;8.38;2.70;;;;;;;16.71;62.58;101281.53;4986668;28;114192;-69
2022/10/25 05:19:35;;;;;;;10.57;2.70;;;;;;;16.69;62.58;101272.75;4987228;28;125036;-66
2022/10/25 05:22:02;;;;;;;8.30;2.90;;;;;;;16.66;62.88;101284.50;4996246;28;124272;-66
2022/10/25 05:24:29;;;;;;;8.90;2.53;;;;;;;16.65;62.96;101281.91;5003078;28;116052;-68
2022/10/25 05:26:56;;;;;;;10.18;3.17;;;;;;;16.64;62.83;101280.22;4996439;28;116842;-69
2022/10/25 05:29:23;;;;;;;9.93;3.17;;;;;;;16.62;62.94;101282.13;4972111;28;122453;-69
2022/10/25 05:31:50;;;;;;;9.35;2.88;;;;;;;16.61;62.92;101283.06;5001355;28;124186;-69
2022/10/25 05:34:17;;;;;;;10.40;3.22;;;;;;;16.60;62.90;101289.38;5002340;28;114875;-65
2022/10/25 05:36:44;;;;;;;8.63;2.83;;;;;;;16.61;63.03;101299.13;5006821;28;114178;-68
2022/10/25 05:39:11;;;;;;;7.32;3.08;;;;;;;16.60;62.94;101300.09;5011551;28;124635;-67
2022/10/25 05:41:38;;;;;;;8.38;2.85;;;;;;;16.59;62.84;101303.69;5003394;28;124381;-67
2022/10/25 05:44:05;;;;;;;8.57;2.88;;;;;;;16.58;63.01;101308.19;5006338;28;115359;-68
2022/10/25 05:46:32;;;;;;;10.35;2.90;;;;;;;16.57;63.15;101316.31;5008626;28;113865;-68
2022/10/25 05:49:00;;;;;;;10.13;3.00;;;;;;;16.55;63.10;101314.59;4999438;28;124902;-68
2022/10/25 05:51:31;;;;;;;11.13;2.97;;;;;;;16.54;63.21;101323.56;4991837;28;123845;-68
2022/10/25 05:54:09;;;;;;;7.55;2.92;;;;;;;16.53;63.04;101321.84;4991026;28;114303;-68
2022/10/25 05:56:37;;;;;;;10.52;2.78;;;;;;;16.51;63.08;101318.41;4980551;28;114059;-67
2022/10/25 05:59:09;;;;;;;9.00;2.83;;;;;;;16.52;63.20;101320.16;4992672;28;124528;-67
2022/10/25 06:01:41;;;;;;;8.57;2.60;;;;;;;16.50;63.17;101316.72;4994989;28;124193;-68
2022/10/25 06:04:09;;;;;;;8.88;2.92;;;;;;;16.51;63.36;101328.25;4984370;28;113500;-68
2022/10/25 06:06:38;;;;;;;8.32;2.75;;;;;;;16.49;63.29;101331.03;4985987;28;114137;-67
2022/10/25 06:09:06;;;;;;;7.18;2.70;;;;;;;16.49;63.27;101331.03;4987814;28;123101;-67
2022/10/25 06:11:33;;;;;;;11.10;2.67;;;;;;;16.47;63.27;101338.28;4974890;28;122841;-67
2022/10/25 06:14:01;;;;;;;9.18;2.85;;;;;;;16.46;63.38;101335.69;4991496;28;114304;-67
2022/10/25 06:16:28;;;;;;;12.90;2.90;;;;;;;16.46;63.38;101352.63;4989112;28;114598;-68
2022/10/25 06:18:55;;;;;;;7.13;2.50;;;;;;;16.44;63.25;101351.81;5005384;28;124291;-67
2022/10/25 06:21:25;;;;;;;8.25;2.28;;;;;;;16.45;63.35;101352.72;4992471;28;124567;-69
2022/10/25 06:23:52;;;;;;;10.05;2.28;;;;;;;16.44;63.32;101357.16;5002608;28;114382;-68
2022/10/25 06:26:22;;;;;;;10.20;2.60;;;;;;;16.44;63.46;101365.19;5003143;28;113244;-67
2022/10/25 06:28:58;;;;;;;11.45;2.75;;;;;;;16.45;63.61;101366.94;4982927;28;124125;-68
2022/10/25 06:31:25;;;;;;;;;;;;;;;16.43;63.44;101368.84;4994330;28;123436;-68
2022/10/25 06:33:52;;;;;;;9.82;2.58;;;;;;;16.46;63.54;101368.66;4990332;28;113959;-68
2022/10/25 06:36:23;;;;;;;7.22;2.45;;;;;;;16.47;63.33;101365.00;4992987;28;114062;-68
2022/10/25 06:38:50;;;;;;;10.55;3.10;;;;;;;16.48;63.67;101361.41;4986821;28;123868;-68
2022/10/25 06:41:20;;;;;;;6.15;2.33;;;;;;;16.50;63.69;101366.63;4979422;28;123656;-68
2022/10/25 06:43:48;;;;;;;12.60;2.83;;;;;;;16.52;63.56;101378.13;4982089;28;113251;-69
2022/10/25 06:46:32;;;;;;;10.27;2.63;;;;;;;16.49;63.73;101379.16;4984110;28;114353;-68
2022/10/25 06:49:03;;;;;;;10.20;2.70;;;;;;;16.52;63.82;101389.66;4985043;28;123796;-68
2022/10/25 06:51:32;;;;;;;10.73;3.10;;;;;;;16.53;63.88;101390.53;5003540;28;124122;-68
2022/10/25 06:54:01;;;;;;;9.20;3.33;;;;;;;16.55;63.75;101394.81;4987703;28;114159;-67
2022/10/25 06:56:28;;;;;;;10.38;3.47;;;;;;;16.58;63.59;101390.25;4990383;28;113950;-67
2022/10/25 06:58:55;;;;;;;8.77;3.22;;;;;;;16.59;63.75;101394.63;4973878;28;123394;-68
2022/10/25 07:01:23;;;;;;;11.68;3.53;;;;;;;16.60;63.65;101396.38;4974310;28;123997;-67
2022/10/25 07:03:55;;;;;;;10.95;3.47;;;;;;;16.60;63.67;101396.38;4991971;28;115219;-68
2022/10/25 07:06:28;;;;;;;10.90;4.05;;;;;;;16.61;63.74;101403.41;4974239;28;115387;-68
2022/10/25 07:08:57;;;;;;;12.20;3.95;;;;;;;16.64;63.67;101408.59;4991882;28;126077;-67
2022/10/25 07:11:27;;;;;;;9.75;3.78;;;;;;;16.64;63.65;101405.91;4980162;28;124145;-68
2022/10/25 07:13:55;;;;;;;7.88;4.00;;;;;;;16.67;63.65;101408.38;4982914;28;114315;-67
2022/10/25 07:16:22;;;;;;;8.77;3.97;;;;;;;16.67;63.63;101409.25;4970415;28;113844;-67
2022/10/25 07:18:49;;;;;;;9.70;4.20;;;;;;;16.70;63.77;101408.19;4992020;28;124140;-67
2022/10/25 07:21:21;;;;;;;10.25;4.30;;;;;;;16.71;63.61;101415.28;4985388;28;123392;-68
2022/10/25 07:23:49;;;;;;;9.05;4.38;;;;;;;16.73;63.59;101408.03;4966632;28;113810;-68
2022/10/25 07:26:21;;;;;;;11.70;4.07;;;;;;;16.74;63.63;101412.41;4983879;28;113747;-68
2022/10/25 07:28:50;;;;;;;13.77;5.13;;;;;;;16.76;63.59;101417.66;4982027;28;124593;-69
2022/10/25 07:31:28;;;;;;;10.15;4.22;;;;;;;16.78;63.55;101411.25;4990172;28;124004;-68
2022/10/25 07:33:58;;;;;;;13.13;4.93;;;;;;;16.81;63.50;101421.78;4956196;28;113468;-69
2022/10/25 07:36:26;;;;;;;10.38;4.72;;;;;;;16.83;63.41;101430.59;4978831;28;114169;-69
2022/10/25 07:38:53;;;;;;;11.60;5.00;;;;;;;16.83;63.51;101419.88;4989783;28;124779;-68
2022/10/25 07:41:20;;;;;;;11.93;5.15;;;;;;;16.85;63.66;101428.69;4971178;28;124009;-69
2022/10/25 07:43:47;;;;;;;9.88;4.75;;;;;;;16.85;63.55;101431.34;5001469;28;115109;-69
2022/10/25 07:46:15;;;;;;;10.45;5.20;;;;;;;16.87;63.53;101429.44;4987177;28;113520;-68
2022/10/25 07:48:42;;;;;;;10.75;5.00;;;;;;;16.89;63.72;101430.19;4999160;28;124506;-69
2022/10/25 07:51:11;;;;;;;11.32;5.70;;;;;;;16.91;63.76;101428.31;4991002;28;124376;-69
2022/10/25 07:53:38;;;;;;;16.52;5.72;;;;;;;16.95;63.54;101428.09;4991642;28;116437;-69
2022/10/25 07:56:06;;;;;;;11.75;5.82;;;;;;;16.98;63.65;101438.63;4991546;28;115302;-69
2022/10/25 07:58:33;;;;;;;11.68;5.68;;;;;;;17.02;63.49;101440.16;4998963;28;123823;-68
2022/10/25 08:01:03;;;;;;;11.60;6.00;;;;;;;17.04;63.44;101432.88;4980067;28;123857;-69
2022/10/25 08:03:31;;;;;;;13.35;6.05;;;;;;;17.06;63.52;101442.53;4990511;28;114336;-68
2022/10/25 08:05:59;;;;;;;13.25;6.00;;;;;;;17.10;63.52;101453.91;5007236;28;114773;-68
2022/10/25 08:08:27;;;;;;;11.80;5.78;;;;;;;17.12;63.41;101441.28;5011222;28;126172;-68
2022/10/25 08:10:54;;;;;;;12.70;6.38;;;;;;;17.18;63.34;101448.94;4987275;28;121515;-68
2022/10/25 08:13:22;;;;;;;13.75;5.93;;;;;;;17.24;63.89;101445.88;4996032;28;113697;-68
2022/10/25 08:15:54;;;;;;;12.70;6.30;;;;;;;17.29;63.40;101454.47;5008997;28;115044;-68
2022/10/25 08:18:22;;;;;;;11.85;5.82;;;;;;;17.34;63.51;101461.34;4972986;28;123148;-69
2022/10/25 08:20:49;;;;;;;12.65;5.82;;;;;;;17.37;63.41;101461.16;4988555;28;123848;-69
2022/10/25 08:23:30;;;;;;;14.45;5.45;;;;;;;17.44;63.38;101468.72;4990175;28;113644;-69
2022/10/25 08:25:58;;;;;;;8.45;5.03;;;;;;;17.50;63.27;101468.31;4985540;28;113290;-69
2022/10/25 08:28:25;;;;;;;8.27;4.82;;;;;;;17.56;63.20;101459.03;4967365;28;123537;-69
2022/10/25 08:30:54;;;;;;;14.55;5.57;;;;;;;17.62;63.01;101466.66;4984838;28;123837;-70
2022/10/25 08:33:22;;;;;;;12.07;5.25;;;;;;;17.67;62.98;101472.59;4983198;28;115020;-70
2022/10/25 08:35:50;;;;;;;10.88;4.97;;;;;;;17.70;62.95;101464.31;4981788;28;114139;-68
2022/10/25 08:38:17;;;;;;;11.80;5.10;;;;;;;17.74;62.78;101473.03;4989528;28;124429;-68
2022/10/25 08:40:55;;;;;;;9.85;4.60;;;;;;;17.77;62.80;101463.94;4977423;28;123845;-68
2022/10/25 08:43:50;;;;;;;12.23;5.00;;;;;;;17.82;62.47;101467.16;4984940;28;115308;-68
2022/10/25 08:46:24;;;;;;;12.43;5.00;;;;;;;17.87;62.32;101465.06;4973348;28;113971;-68
2022/10/25 08:49:02;;;;;;;10.23;4.90;;;;;;;17.90;62.67;101475.59;4976034;28;124094;-68
2022/10/25 08:51:35;;;;;;;8.93;4.30;;;;;;;17.96;62.35;101480.56;4982940;28;124776;-69
2022/10/25 08:54:19;;;;;;;13.48;4.65;;;;;;;18.00;62.26;101482.06;4991776;28;114969;-69
2022/10/25 08:56:47;;;;;;;11.13;4.38;;;;;;;18.04;62.01;101488.94;4992969;28;114007;-69
2022/10/25 08:59:39;;;;;;;8.38;4.22;;;;;;;18.05;61.82;101485.31;4971951;28;123386;-69
2022/10/25 09:02:19;;;;;;;9.73;4.68;;;;;;;18.06;61.63;101492.41;4991291;28;124080;-69
2022/10/25 09:04:46;;;;;;;8.10;4.40;;;;;;;18.08;61.73;101490.47;4989633;28;114752;-69
2022/10/25 09:07:41;;;;;;;9.82;4.32;;;;;;;18.11;61.78;101486.72;5000453;28;114191;-69
2022/10/25 09:10:52;;;;;;;9.48;4.03;;;;;;;18.13;61.90;101494.66;4990901;28;123921;-69
2022/10/25 09:13:44;;;;;;;7.75;4.10;;;;;;;18.20;61.79;101498.66;4993957;28;123981;-69
2022/10/25 09:16:16;;;;;;;9.80;4.47;;;;;;;18.24;61.68;101502.84;4973915;28;115178;-69
2022/10/25 09:18:54;;;;;;;11.15;4.55;;;;;;;18.28;61.63;101515.09;4973878;28;112705;-69
2022/10/25 09:21:46;;;;;;;10.63;4.38;;;;;;;18.29;61.40;101514.16;4971002;28;122896;-69
2022/10/25 09:24:26;;;;;;;11.57;4.60;;;;;;;18.29;61.37;101519.50;4989583;28;125409;-69
2022/10/25 09:27:16;;;;;;;9.20;4.57;;;;;;;18.30;61.31;101521.22;4996289;28;114243;-69
2022/10/25 09:30:07;;;;;;;11.50;4.20;;;;;;;18.35;61.41;101529.81;4995932;28;114459;-69
2022/10/25 09:32:41;;;;;;;9.30;4.18;;;;;;;18.40;61.37;101522.31;4981149;28;123687;-69
2022/10/25 09:35:41;;;;;;;10.57;4.20;;;;;;;18.46;61.19;101521.91;4993174;28;123186;-68
2022/10/25 09:38:20;;;;;;;10.00;4.05;;;;;;;18.51;60.92;101518.03;4974655;28;114209;-69
2022/10/25 09:41:00;;;;;;;11.25;3.50;;;;;;;18.54;60.89;101528.59;4999268;28;114837;-69
2022/10/25 09:43:58;;;;;;;8.43;3.67;;;;;;;18.57;61.00;101520.31;4980005;28;124173;-69
2022/10/25 09:46:38;;;;;;;9.93;3.55;;;;;;;18.59;60.63;101531.78;4974318;28;124103;-69
2022/10/25 09:49:24;;;;;;;8.75;3.30;;;;;;;18.63;60.73;101527.97;4981929;28;114710;-69
2022/10/25 09:52:10;;;;;;;;;;;;;;;18.65;61.02;101531.41;4977155;28;113484;-69
2022/10/25 09:54:52;;;;;;;9.17;3.90;;;;;;;18.72;60.74;101527.31;4980992;28;123406;-69
2022/10/25 09:57:19;;;;;;;6.35;2.83;;;;;;;18.79;60.52;101533.97;4976286;28;123479;-69
2022/10/25 09:59:50;;;;;;;10.60;3.40;;;;;;;18.85;60.35;101530.94;4983958;28;114124;-69
2022/10/25 10:02:23;;;;;;;7.90;2.95;;;;;;;18.92;60.40;101533.16;4980253;28;113797;-69
2022/10/25 10:04:51;;;;;;;7.13;3.10;;;;;;;19.00;60.19;101541.53;4987079;28;123937;-69
2022/10/25 10:07:24;;;;;;;7.93;3.10;;;;;;;19.03;59.84;101541.34;4985019;28;124059;-69
2022/10/25 10:09:55;;;;;;;10.43;3.20;;;;;;;19.05;60.06;101540.25;4982593;28;114103;-69
2022/10/25 10:12:32;;;;;;;6.90;2.55;;;;;;;19.12;59.74;101540.69;4961153;28;113035;-69
2022/10/25 10:15:03;;;;;;;9.57;3.17;;;;;;;19.15;59.40;101551.22;4984864;28;123827;-68
2022/10/25 10:17:30;;;;;;;7.50;2.80;;;;;;;19.15;59.35;101551.22;4975756;28;124294;-69
2022/10/25 10:20:13;;;;;;;8.52;3.15;;;;;;;19.12;59.17;101551.44;4970612;28;114932;-69
2022/10/25 10:22:53;;;;;;;6.90;3.08;;;;;;;19.10;59.13;101556.06;4985193;28;113552;-69
2022/10/25 10:25:24;;;;;;;7.65;3.08;;;;;;;19.10;59.27;101552.50;4976922;28;124518;-69
2022/10/25 10:27:54;;;;;;;7.50;2.92;;;;;;;19.10;59.38;101557.88;4962920;28;123781;-68
2022/10/25 10:30:29;;;;;;;7.25;3.50;;;;;;;19.09;59.28;101557.00;4983760;28;114911;-69
2022/10/25 10:33:00;;;;;;;9.45;2.90;;;;;;;19.14;59.25;101552.19;4978130;28;115150;-68
2022/10/25 10:35:35;;;;;;;9.65;3.22;;;;;;;19.18;59.28;101560.91;4979552;28;123055;-68
2022/10/25 10:38:12;;;;;;;10.85;3.35;;;;;;;19.21;59.13;101564.22;4981073;28;122589;-68
2022/10/25 10:40:39;;;;;;;8.15;3.05;;;;;;;19.24;59.29;101560.47;4980714;28;114213;-69
2022/10/25 10:43:27;;;;;;;6.45;2.88;;;;;;;19.29;59.12;101557.44;4980933;28;113697;-69
2022/10/25 10:46:03;;;;;;;8.85;2.53;;;;;;;19.31;58.85;101567.13;4978562;28;123922;-69
2022/10/25 10:48:33;;;;;;;7.43;2.58;;;;;;;19.35;58.96;101557.03;4981641;28;124734;-69
2022/10/25 10:51:06;;;;;;;14.55;3.30;;;;;;;19.38;58.90;101572.91;4982210;28;114254;-69
2022/10/25 10:53:51;;;;;;;8.52;2.40;;;;;;;19.40;58.82;101573.66;4987619;28;113931;-68
2022/10/25 10:56:21;;;;;;;8.40;2.85;;;;;;;19.43;59.03;101566.22;4984036;28;124020;-69
2022/10/25 10:58:49;;;;;;;7.30;2.10;;;;;;;19.49;59.03;101564.94;4987124;28;124049;-69
2022/10/25 11:01:32;;;;;;;9.63;2.50;;;;;;;19.55;59.00;101569.91;4980292;28;114251;-69
2022/10/25 11:03:59;;;;;;;10.18;2.30;;;;;;;19.63;58.67;101572.03;4987920;28;116859;-69
2022/10/25 11:06:32;;;;;;;5.97;2.38;;;;;;;19.67;58.57;101567.31;4982979;28;123865;-69
2022/10/25 11:09:25;;;;;;;7.63;2.13;;;;;;;19.72;58.53;101576.78;4966102;28;123746;-69
2022/10/25 11:12:13;;;;;;;8.35;2.35;;;;;;;19.77;58.23;101579.13;4979892;28;114209;-69
2022/10/25 11:14:41;;;;;;;6.53;2.13;;;;;;;19.80;58.14;101578.91;4990315;28;114399;-69
2022/10/25 11:17:20;;;;;;;5.78;2.30;;;;;;;19.80;57.95;101579.78;4983802;28;123480;-69
2022/10/25 11:20:15;;;;;;;8.45;2.40;;;;;;;19.81;57.82;101577.94;4987361;28;123752;-70
2022/10/25 11:22:57;;;;;;;5.80;2.05;;;;;;;19.82;58.03;101568.91;4989967;28;114118;-70
2022/10/25 11:25:40;;;;;;;7.10;2.10;;;;;;;19.86;57.95;101573.09;4993426;28;114920;-69
2022/10/25 11:28:45;;;;;;;6.72;2.10;;;;;;;19.92;57.86;101578.00;4989113;28;124751;-69
2022/10/25 11:31:47;;;;;;;5.88;1.90;;;;;;;19.95;57.84;101571.56;4982044;28;124166;-69
2022/10/25 11:34:23;;;;;;;8.18;1.90;;;;;;;19.96;57.58;101574.13;4991435;28;115203;-69
2022/10/25 11:37:11;;;;;;;7.72;2.10;;;;;;;19.98;57.28;101576.69;4990003;28;113956;-69
2022/10/25 11:40:25;;;;;;;5.55;1.83;;;;;;;19.98;57.14;101571.31;4969397;28;123526;-69